Terminal Aerodrome Forecast
Issued by NWS Topeka, KS

Home | Current Version | Previous Version | Graphics & Text | Print | Product List | Glossary On
Versions: 1 2 3 4 5 6 7 8 9 10 11 12 13 14 15 16 17 18
007
FTUS43 KTOP 200200 AAA
TAFTOP
TAF AMD
KTOP 200200Z 2002/2024 17008KT P6SM SCT020
     FM200500 17008KT 5SM BR SCT020 BKN035
     FM200800 16008KT 4SM SHRA BR VCTS OVC013CB
     FM201200 16009KT 4SM BR VCSH OVC015
     FM201900 20011KT P6SM BKN045=

USA.gov is the U.S. government's official web portal to all federal, state and local government web resources and services.